JST606 YMAV-YSSY
Flight info
| Callsign | JST606 |
|---|---|
| Flight time | N/A |
| Altitude | 37000 |
| Route | YMAV/36 3752S14444E DOSEL Y59 RIVET |
| Aircraft | A320/M-SDE3FGHIRWY/LB1 |
Departure
| Time | N/A |
|---|---|
| Airport | Melbourne Avalon International Airport (YMAV) |
Arrival
| Time | 2026-04-21 02:22 |
|---|---|
| Airport | Sydney Kingsford Smith International Airport (YSSY) |
| Time | Latitude | Longitude | Altitude | Speed | Heading |
|---|---|---|---|---|---|
| 2026-04-21 01:37 | -36.28600 | 146.89783 | 37409 ft | 475 kts | 54° |
| 2026-04-21 01:37 | -36.26627 | 146.93072 | 37410 ft | 475 kts | 54° |
| 2026-04-21 01:38 | -36.22677 | 146.99646 | 37406 ft | 476 kts | 54° |
| 2026-04-21 01:38 | -36.18733 | 147.06228 | 37401 ft | 476 kts | 54° |
| 2026-04-21 01:39 | -36.14806 | 147.12762 | 37423 ft | 476 kts | 54° |
| 2026-04-21 01:39 | -36.10840 | 147.19327 | 37412 ft | 476 kts | 54° |
| 2026-04-21 01:40 | -36.06875 | 147.25891 | 37403 ft | 476 kts | 54° |
| 2026-04-21 01:40 | -36.02915 | 147.32443 | 37406 ft | 476 kts | 54° |
| 2026-04-21 01:41 | -35.98951 | 147.38993 | 37415 ft | 476 kts | 54° |
| 2026-04-21 01:41 | -35.95005 | 147.45490 | 37411 ft | 476 kts | 54° |
| 2026-04-21 01:42 | -35.91027 | 147.52018 | 37406 ft | 476 kts | 54° |
| 2026-04-21 01:42 | -35.87047 | 147.58539 | 37407 ft | 476 kts | 54° |
| 2026-04-21 01:43 | -35.83064 | 147.65054 | 37406 ft | 476 kts | 54° |
| 2026-04-21 01:43 | -35.79105 | 147.71525 | 37410 ft | 476 kts | 54° |
| 2026-04-21 01:44 | -35.75117 | 147.78034 | 37407 ft | 476 kts | 54° |
| 2026-04-21 01:44 | -35.71126 | 147.84536 | 37404 ft | 476 kts | 54° |
| 2026-04-21 01:45 | -35.67128 | 147.91026 | 37398 ft | 476 kts | 54° |
| 2026-04-21 01:45 | -35.63156 | 147.97462 | 37397 ft | 476 kts | 54° |
| 2026-04-21 01:46 | -35.59156 | 148.03942 | 37394 ft | 476 kts | 54° |
| 2026-04-21 01:46 | -35.55155 | 148.10415 | 37404 ft | 476 kts | 54° |
| 2026-04-21 01:47 | -35.51141 | 148.16876 | 37391 ft | 476 kts | 54° |
| 2026-04-21 01:47 | -35.47121 | 148.23332 | 37402 ft | 476 kts | 54° |
| 2026-04-21 01:48 | -35.43128 | 148.29754 | 37401 ft | 477 kts | 54° |
| 2026-04-21 01:48 | -35.39108 | 148.36213 | 37408 ft | 476 kts | 54° |
| 2026-04-21 01:49 | -35.35078 | 148.42659 | 37401 ft | 477 kts | 54° |
| 2026-04-21 01:49 | -35.31045 | 148.49103 | 37413 ft | 477 kts | 54° |
| 2026-04-21 01:50 | -35.27010 | 148.55546 | 37409 ft | 477 kts | 54° |
| 2026-04-21 01:50 | -35.22997 | 148.61940 | 37411 ft | 477 kts | 54° |
| 2026-04-21 01:51 | -35.18950 | 148.68369 | 37409 ft | 477 kts | 54° |
| 2026-04-21 01:51 | -35.14899 | 148.74796 | 37413 ft | 478 kts | 54° |
| 2026-04-21 01:52 | -35.08807 | 148.84435 | 37423 ft | 478 kts | 54° |
| 2026-04-21 01:53 | -35.04767 | 148.90809 | 37418 ft | 478 kts | 54° |
| 2026-04-21 01:53 | -35.00697 | 148.97218 | 37374 ft | 478 kts | 54° |
| 2026-04-21 01:54 | -34.96639 | 149.03593 | 36912 ft | 477 kts | 54° |
| 2026-04-21 01:54 | -34.94582 | 149.06828 | 35795 ft | 488 kts | 54° |
| 2026-04-21 01:54 | -34.92486 | 149.10122 | 34828 ft | 495 kts | 54° |
| 2026-04-21 01:54 | -34.90372 | 149.13437 | 34070 ft | 495 kts | 54° |
| 2026-04-21 01:55 | -34.88299 | 149.16676 | 33019 ft | 489 kts | 54° |
| 2026-04-21 01:55 | -34.86235 | 149.19895 | 32462 ft | 473 kts | 54° |
| 2026-04-21 01:55 | -34.84240 | 149.23001 | 31917 ft | 459 kts | 54° |
| 2026-04-21 01:55 | -34.82302 | 149.26019 | 31396 ft | 446 kts | 54° |
| 2026-04-21 01:56 | -34.80423 | 149.28951 | 30877 ft | 434 kts | 54° |
| 2026-04-21 01:56 | -34.78585 | 149.31821 | 30373 ft | 429 kts | 55° |
| 2026-04-21 01:56 | -34.76752 | 149.34686 | 29829 ft | 429 kts | 55° |
| 2026-04-21 01:56 | -34.74924 | 149.37538 | 29350 ft | 426 kts | 56° |
| 2026-04-21 01:57 | -34.73812 | 149.39494 | 29046 ft | 423 kts | 62° |
| 2026-04-21 01:57 | -34.71961 | 149.43676 | 28433 ft | 418 kts | 66° |
| 2026-04-21 01:57 | -34.70628 | 149.46758 | 27991 ft | 417 kts | 65° |
| 2026-04-21 01:57 | -34.69278 | 149.49868 | 27541 ft | 415 kts | 65° |
| 2026-04-21 01:58 | -34.67929 | 149.52965 | 27115 ft | 414 kts | 65° |
| 2026-04-21 01:58 | -34.66581 | 149.56046 | 26685 ft | 413 kts | 65° |
| 2026-04-21 01:58 | -34.65231 | 149.59124 | 26255 ft | 412 kts | 65° |
| 2026-04-21 01:58 | -34.63886 | 149.62192 | 25847 ft | 411 kts | 65° |
| 2026-04-21 01:59 | -34.62544 | 149.65254 | 25424 ft | 411 kts | 65° |
| 2026-04-21 01:59 | -34.61655 | 149.67278 | 25142 ft | 410 kts | 65° |
| 2026-04-21 01:59 | -34.60313 | 149.70328 | 24726 ft | 409 kts | 65° |
| 2026-04-21 01:59 | -34.58539 | 149.74361 | 24153 ft | 409 kts | 65° |
| 2026-04-21 02:00 | -34.57203 | 149.77402 | 23680 ft | 408 kts | 65° |
| 2026-04-21 02:00 | -34.56301 | 149.79449 | 23373 ft | 407 kts | 65° |
| 2026-04-21 02:00 | -34.54971 | 149.82465 | 22923 ft | 404 kts | 65° |
| 2026-04-21 02:00 | -34.53665 | 149.85420 | 22478 ft | 402 kts | 65° |
| 2026-04-21 02:01 | -34.52351 | 149.88399 | 22015 ft | 399 kts | 65° |
| 2026-04-21 02:01 | -34.51046 | 149.91364 | 21559 ft | 398 kts | 65° |
| 2026-04-21 02:01 | -34.49747 | 149.94314 | 21080 ft | 396 kts | 65° |
| 2026-04-21 02:01 | -34.48452 | 149.97245 | 20721 ft | 391 kts | 65° |
| 2026-04-21 02:02 | -34.47180 | 150.00112 | 20477 ft | 382 kts | 65° |
| 2026-04-21 02:02 | -34.45931 | 150.02917 | 20234 ft | 375 kts | 65° |
| 2026-04-21 02:02 | -34.44700 | 150.05694 | 19994 ft | 373 kts | 65° |
| 2026-04-21 02:02 | -34.43481 | 150.08454 | 19758 ft | 371 kts | 65° |
| 2026-04-21 02:03 | -34.42266 | 150.11202 | 19522 ft | 369 kts | 65° |
| 2026-04-21 02:03 | -34.41053 | 150.13937 | 19287 ft | 368 kts | 65° |
| 2026-04-21 02:03 | -34.39840 | 150.16657 | 19052 ft | 366 kts | 65° |
| 2026-04-21 02:03 | -34.38650 | 150.19330 | 18834 ft | 365 kts | 65° |
| 2026-04-21 02:04 | -34.37451 | 150.22027 | 18595 ft | 363 kts | 65° |
| 2026-04-21 02:04 | -34.36253 | 150.24714 | 18321 ft | 362 kts | 65° |
| 2026-04-21 02:04 | -34.35059 | 150.27386 | 18055 ft | 360 kts | 65° |
| 2026-04-21 02:04 | -34.33869 | 150.30044 | 17801 ft | 358 kts | 65° |
| 2026-04-21 02:05 | -34.32762 | 150.32520 | 17499 ft | 353 kts | 65° |
| 2026-04-21 02:05 | -34.31701 | 150.34899 | 17107 ft | 351 kts | 65° |
| 2026-04-21 02:05 | -34.30545 | 150.37489 | 16666 ft | 349 kts | 64° |
| 2026-04-21 02:05 | -34.29393 | 150.40069 | 16224 ft | 348 kts | 64° |
| 2026-04-21 02:06 | -34.28242 | 150.42640 | 15785 ft | 347 kts | 64° |
| 2026-04-21 02:06 | -34.27111 | 150.45168 | 15359 ft | 346 kts | 64° |
| 2026-04-21 02:06 | -34.25971 | 150.47726 | 14924 ft | 345 kts | 65° |
| 2026-04-21 02:06 | -34.24835 | 150.50277 | 14492 ft | 344 kts | 64° |
| 2026-04-21 02:07 | -34.23700 | 150.52824 | 14046 ft | 344 kts | 64° |
| 2026-04-21 02:07 | -34.22567 | 150.55360 | 13587 ft | 342 kts | 64° |
| 2026-04-21 02:07 | -34.21436 | 150.57876 | 13159 ft | 340 kts | 64° |
| 2026-04-21 02:07 | -34.20311 | 150.60375 | 12732 ft | 338 kts | 64° |
| 2026-04-21 02:08 | -34.19192 | 150.62863 | 12307 ft | 336 kts | 64° |
| 2026-04-21 02:08 | -34.18082 | 150.65337 | 11888 ft | 334 kts | 64° |
| 2026-04-21 02:08 | -34.16977 | 150.67800 | 11469 ft | 333 kts | 64° |
| 2026-04-21 02:08 | -34.15876 | 150.70250 | 11049 ft | 331 kts | 64° |
| 2026-04-21 02:09 | -34.14793 | 150.72657 | 10643 ft | 330 kts | 64° |
| 2026-04-21 02:09 | -34.13709 | 150.75062 | 10465 ft | 321 kts | 63° |
| 2026-04-21 02:09 | -34.12655 | 150.77387 | 10339 ft | 310 kts | 66° |
| 2026-04-21 02:09 | -34.11632 | 150.79646 | 10095 ft | 305 kts | 65° |
| 2026-04-21 02:10 | -34.10622 | 150.81880 | 9763 ft | 301 kts | 64° |
| 2026-04-21 02:10 | -34.09621 | 150.84094 | 9400 ft | 300 kts | 65° |
| 2026-04-21 02:10 | -34.08628 | 150.86296 | 9076 ft | 297 kts | 65° |
| 2026-04-21 02:10 | -34.07644 | 150.88482 | 8736 ft | 296 kts | 66° |
| 2026-04-21 02:11 | -34.06358 | 150.91350 | 8301 ft | 292 kts | 65° |
| 2026-04-21 02:11 | -34.05719 | 150.92775 | 8087 ft | 291 kts | 66° |
| 2026-04-21 02:11 | -34.04755 | 150.94911 | 7787 ft | 289 kts | 64° |
| 2026-04-21 02:11 | -34.03798 | 150.97026 | 7460 ft | 287 kts | 65° |
| 2026-04-21 02:12 | -34.02849 | 150.99125 | 7153 ft | 284 kts | 64° |
| 2026-04-21 02:12 | -34.01869 | 151.01184 | 6920 ft | 283 kts | 56° |
| 2026-04-21 02:12 | -34.00388 | 151.02725 | 6680 ft | 285 kts | 29° |
| 2026-04-21 02:12 | -33.98469 | 151.03317 | 6354 ft | 288 kts | 0° |
| 2026-04-21 02:13 | -33.96472 | 151.03142 | 6050 ft | 287 kts | 354° |
| 2026-04-21 02:13 | -33.94508 | 151.02853 | 5869 ft | 289 kts | 353° |
| 2026-04-21 02:13 | -33.92522 | 151.02541 | 5656 ft | 289 kts | 353° |
| 2026-04-21 02:13 | -33.90533 | 151.02223 | 5448 ft | 287 kts | 353° |
| 2026-04-21 02:14 | -33.88553 | 151.01904 | 5255 ft | 287 kts | 353° |
| 2026-04-21 02:14 | -33.86584 | 151.01588 | 5051 ft | 285 kts | 353° |
| 2026-04-21 02:14 | -33.84617 | 151.01273 | 4847 ft | 285 kts | 353° |
| 2026-04-21 02:14 | -33.82657 | 151.00954 | 4641 ft | 283 kts | 353° |
| 2026-04-21 02:15 | -33.80710 | 151.00638 | 4435 ft | 281 kts | 353° |
| 2026-04-21 02:15 | -33.78772 | 151.00330 | 4228 ft | 280 kts | 353° |
| 2026-04-21 02:15 | -33.76837 | 151.00023 | 4065 ft | 281 kts | 354° |
| 2026-04-21 02:15 | -33.74908 | 151.00146 | 3982 ft | 278 kts | 19° |
| 2026-04-21 02:16 | -33.73274 | 151.01253 | 3862 ft | 272 kts | 47° |
| 2026-04-21 02:16 | -33.72278 | 151.03109 | 3737 ft | 262 kts | 77° |
| 2026-04-21 02:16 | -33.72023 | 151.05245 | 3616 ft | 259 kts | 91° |
| 2026-04-21 02:16 | -33.71961 | 151.07407 | 3493 ft | 257 kts | 97° |
| 2026-04-21 02:17 | -33.72447 | 151.09393 | 3363 ft | 246 kts | 127° |
| 2026-04-21 02:17 | -33.73658 | 151.10786 | 3237 ft | 242 kts | 149° |
| 2026-04-21 02:17 | -33.75104 | 151.11823 | 3124 ft | 241 kts | 153° |
| 2026-04-21 02:17 | -33.76545 | 151.12794 | 3013 ft | 241 kts | 156° |
| 2026-04-21 02:18 | -33.78121 | 151.13378 | 2931 ft | 233 kts | 169° |
| 2026-04-21 02:18 | -33.79665 | 151.13746 | 2693 ft | 220 kts | 169° |
| 2026-04-21 02:18 | -33.81122 | 151.14104 | 2425 ft | 208 kts | 169° |
| 2026-04-21 02:18 | -33.82497 | 151.14457 | 2159 ft | 197 kts | 169° |
| 2026-04-21 02:19 | -33.83797 | 151.14793 | 1901 ft | 185 kts | 170° |
| 2026-04-21 02:19 | -33.85028 | 151.15112 | 1661 ft | 177 kts | 169° |
| 2026-04-21 02:19 | -33.86164 | 151.15406 | 1444 ft | 159 kts | 168° |
| 2026-04-21 02:19 | -33.87185 | 151.15671 | 1235 ft | 140 kts | 170° |
| 2026-04-21 02:20 | -33.88095 | 151.15906 | 1046 ft | 130 kts | 169° |
| 2026-04-21 02:20 | -33.88962 | 151.16130 | 863 ft | 127 kts | 169° |
| 2026-04-21 02:20 | -33.89816 | 151.16351 | 707 ft | 127 kts | 169° |
| 2026-04-21 02:20 | -33.90663 | 151.16570 | 538 ft | 121 kts | 168° |
| 2026-04-21 02:21 | -33.91505 | 151.16790 | 367 ft | 125 kts | 171° |
| 2026-04-21 02:21 | -33.92350 | 151.17010 | 175 ft | 123 kts | 172° |
| 2026-04-21 02:21 | -33.93185 | 151.17225 | 43 ft | 122 kts | 171° |
| 2026-04-21 02:21 | -33.93843 | 151.17397 | 26 ft | 58 kts | 167° |
| 2026-04-21 02:22 | -33.94124 | 151.17476 | 27 ft | 35 kts | 168° |
| 2026-04-21 02:22 | -33.94340 | 151.17561 | 30 ft | 32 kts | 149° |
| 2026-04-21 02:22 | -33.94498 | 151.17695 | 30 ft | 16 kts | 136° |
| 2026-04-21 02:22 | -33.94455 | 151.17772 | 30 ft | 16 kts | 354° |
| 2026-04-21 02:23 | -33.94339 | 151.17738 | 30 ft | 19 kts | 346° |
| 2026-04-21 02:23 | -33.94218 | 151.17702 | 29 ft | 15 kts | 346° |
| 2026-04-21 02:23 | -33.94109 | 151.17669 | 29 ft | 17 kts | 346° |
| 2026-04-21 02:23 | -33.93981 | 151.17632 | 28 ft | 18 kts | 348° |
| 2026-04-21 02:24 | -33.93872 | 151.17603 | 29 ft | 17 kts | 347° |
| 2026-04-21 02:24 | -33.93767 | 151.17576 | 29 ft | 13 kts | 348° |
| 2026-04-21 02:24 | -33.93681 | 151.17562 | 29 ft | 12 kts | 11° |
| 2026-04-21 02:24 | -33.93611 | 151.17622 | 30 ft | 11 kts | 48° |
| 2026-04-21 02:25 | -33.93596 | 151.17691 | 30 ft | 2 kts | 77° |
| 2026-04-21 02:25 | -33.93594 | 151.17701 | 30 ft | 0 kts | 78° |